»·PEaware :: BLADE41 KSPS-KSPS

BLADE41 :: KSPS-KSPS

FLIGHT INFORMATION

Flight Status: Arrived
Operator: Unknown
More flights by this operator :: More flights under this callsign
Pilot: 80 FTW ENJJPT (22981)
Aircraft: BEECH AIRCRAFT T-6A TEXAN
(TEX2)
More flights by this aircraft type
Origin: KSPS Sheppard AFB/Wichita Falls Mu
United States
Destination: KSPS Sheppard AFB/Wichita Falls Mu
United States
More flights between these airports :: More routes between these airports
Route: +
File this flight plan on PilotEdge
Remarks:
Altitude:
(Current/Filed)
0ft
Speed:
(Current/Filed)
0kts
Departed: 29-Jun-20 10:45 AM
Arrived: 29-Jun-20 11:05 AM
Distance/Time
Traveled:
1nm/0:20
Distance/Time
To Go:
Arrived

Flight Plot

Page will automatically refresh every two minutes.

Flight plan parsing failed; only flown route is shown


Map Options




Map Legend


Flown Route
Filed Route
Departure Airport
Arrival Airport
Navaid (VOR, NDB)
Fix

Horizontal Profiles

Position Reports

Time Latitude Longitude Heading Altitude Ground
Speed
29-Jun-20 10:28 33.998605 -98.503532 338 1023ft 0kts
29-Jun-20 10:29 33.998605 -98.503532 338 1023ft 0kts
29-Jun-20 10:30 33.998605 -98.503532 338 1023ft 0kts
29-Jun-20 10:31 33.998605 -98.503532 338 1023ft 0kts
29-Jun-20 10:32 33.998605 -98.503532 338 1023ft 0kts
29-Jun-20 10:33 33.998605 -98.503532 338 1023ft 0kts
29-Jun-20 10:34 33.998605 -98.503532 338 1023ft 0kts
29-Jun-20 10:35 33.999260 -98.503086 13 1023ft 9kts
29-Jun-20 10:36 34.002318 -98.503325 45 1023ft 13kts
29-Jun-20 10:37 34.005930 -98.502381 6 1023ft 12kts
29-Jun-20 10:38 34.009015 -98.499515 65 1023ft 13kts
29-Jun-20 10:39 34.010692 -98.494551 65 1023ft 4kts
29-Jun-20 10:40 34.010830 -98.494134 67 1023ft 0kts
29-Jun-20 10:42 34.010905 -98.493910 67 1023ft 0kts
29-Jun-20 10:43 34.010914 -98.493882 67 1023ft 0kts
29-Jun-20 10:44 34.008940 -98.492112 158 1023ft 72kts
29-Jun-20 10:45 33.981247 -98.468031 88 1992ft 165kts
29-Jun-20 10:46 34.023804 -98.462389 351 2224ft 190kts
29-Jun-20 10:47 34.059817 -98.490766 251 2049ft 189kts
29-Jun-20 10:48 34.017114 -98.498774 169 4041ft 147kts
29-Jun-20 10:49 34.017487 -98.478269 325 2603ft 133kts
29-Jun-20 10:50 34.000341 -98.488201 162 1140ft 121kts
29-Jun-20 10:51 33.983309 -98.445592 31 1905ft 230kts
29-Jun-20 10:52 34.044094 -98.456241 338 2024ft 218kts
29-Jun-20 10:53 34.043314 -98.500794 191 1945ft 206kts
29-Jun-20 10:54 34.005105 -98.477809 66 3398ft 129kts
29-Jun-20 10:55 34.014268 -98.494413 170 1196ft 126kts
29-Jun-20 10:56 33.981081 -98.476691 93 1767ft 168kts
29-Jun-20 10:57 34.014794 -98.480440 347 1971ft 127kts
29-Jun-20 10:58 34.007497 -98.491432 159 1024ft 83kts
29-Jun-20 10:59 33.983091 -98.465174 66 1670ft 198kts
29-Jun-20 11:00 34.028890 -98.470431 334 2011ft 223kts
29-Jun-20 11:01 34.047189 -98.504171 190 1913ft 211kts
29-Jun-20 11:02 34.010335 -98.479719 348 1852ft 134kts
29-Jun-20 11:03 34.010685 -98.493099 158 1037ft 106kts
29-Jun-20 11:04 34.002677 -98.489238 158 1023ft 38kts
29-Jun-20 11:05 33.995060 -98.487336 233 1023ft 1kts
29-Jun-20 11:06 33.995056 -98.487344 235 1023ft 0kts
29-Jun-20 11:07 33.995056 -98.487344 235 1023ft 0kts
29-Jun-20 11:08 33.998644 -98.503397 338 1023ft 0kts
29-Jun-20 11:09 33.998644 -98.503397 338 1023ft 0kts
29-Jun-20 11:10 33.998644 -98.503397 338 1023ft 0kts
29-Jun-20 11:11 33.998644 -98.503397 338 1023ft 0kts
29-Jun-20 11:12 33.998644 -98.503397 338 1023ft 0kts
29-Jun-20 11:13 33.998644 -98.503397 338 1023ft 0kts
29-Jun-20 11:14 33.998644 -98.503397 338 1023ft 0kts
29-Jun-20 11:15 33.998644 -98.503397 338 1023ft 0kts
29-Jun-20 11:16 33.998644 -98.503397 338 1023ft 0kts
29-Jun-20 11:17 33.998644 -98.503397 338 1023ft 0kts
29-Jun-20 11:18 33.998644 -98.503397 338 1023ft 0kts

Navigation Log

Ident Type
Flight plan parsing failed, navigation log unavailable